KJAS/JAS METAR and TAF weather

Enter ICAO airport designator
Station Type Date Time Source
KJAS METAR 2019/10/14 05:35 UTC NOAA

KJAS 140535Z AUTO 00000KT 10SM OVC080 20/15 A3004 RMK AO2 T01950146


Station Type Date Time Source
KJAS Decoded METAR 2019/10/14 05:35 UTC NOAA

Jasper, Jasper County-Bell Field Airport, TX, United States (KJAS) 30-53-08N 094-02-05W
Oct 14, 2019 - 01:35 AM EDT / 2019.10.14 0535 UTC
Wind: Calm:0
Visibility: 10 mile(s):0
Sky conditions: overcast
Temperature: 67.1 F (19.5 C)
Dew Point: 58.3 F (14.6 C)
Relative Humidity: 73%
Pressure (altimeter): 30.04 in. Hg (1017 hPa)
ob: KJAS 140535Z AUTO 00000KT 10SM OVC080 20/15 A3004 RMK AO2 T01950146
cycle: 5

Station Type Date Time Source
KJAS TAF UTC NOAA

Error!

Example: see airport list